Terminal Aerodrome Forecast
Issued by NWS Wakefield, VA

Home | Current Version | Previous Version | Text Only | Print | Product List | Glossary On
Versions: 1 2 3 4 5 6 7 8 9 10 11 12 13
000
FTUS41 KAKQ 010500
TAFRIC
TAF
KRIC 010523Z 0106/0206 18004KT P6SM SCT040 BKN120
      TEMPO 0106/0110 5SM -SHRA BR BKN040
     FM011200 12006KT P6SM BKN040
     FM012000 08005KT P6SM OVC030=

USA.gov is the U.S. government's official web portal to all federal, state and local government web resources and services.